Time;durP1;ratioP1;P1;durP2;ratioP2;P2;SDS_P1;SDS_P2;PMS_P1;PMS_P2;Temp;Humidity;BMP_temperature;BMP_pressure;BME280_temperature;BME280_humidity;BME280_pressure;Samples;Min_cycle;Max_cycle;Signal;HPM_P1;HPM_P2
2023/05/03 00:01:37;;;;;;;0.10;0.10;;;4.40;99.90;;;;;;6133120;23;20048;-89
2023/05/03 00:04:24;;;;;;;0.13;0.13;;;5.00;99.90;;;;;;6113177;23;20346;-89
2023/05/03 00:07:13;;;;;;;0.20;0.20;;;5.20;99.90;;;;;;6133842;23;20056;-90
2023/05/03 00:09:48;;;;;;;0.10;0.10;;;5.10;99.90;;;;;;6133705;23;20262;-89
2023/05/03 00:12:19;;;;;;;0.08;0.08;;;5.20;99.90;;;;;;6157253;23;20017;-89
2023/05/03 00:14:54;;;;;;;0.28;0.28;;;5.10;99.90;;;;;;6113483;23;20096;-89
2023/05/03 00:17:22;;;;;;;0.10;0.10;;;5.00;99.90;;;;;;6157557;23;20021;-89
2023/05/03 00:19:54;;;;;;;0.17;0.13;;;5.10;99.90;;;;;;6109133;23;20028;-89
2023/05/03 00:22:25;;;;;;;0.25;0.20;;;5.10;99.90;;;;;;6133670;23;20470;-89
2023/05/03 00:27:47;;;;;;;0.20;0.20;;;5.30;99.90;;;;;;6142352;23;20036;-89
2023/05/03 00:30:24;;;;;;;0.20;0.20;;;5.30;99.90;;;;;;6135730;23;20017;-89
2023/05/03 00:32:50;;;;;;;1.25;0.32;;;5.40;99.90;;;;;;6135180;23;20087;-90
2023/05/03 00:35:36;;;;;;;0.20;0.20;;;5.60;99.90;;;;;;6159237;23;20020;-89
2023/05/03 00:38:04;;;;;;;0.10;0.10;;;5.60;99.90;;;;;;6136052;23;20045;-89
2023/05/03 00:40:35;;;;;;;0.22;0.13;;;5.50;99.90;;;;;;6135304;23;20013;-89
2023/05/03 00:43:29;;;;;;;;;;;;;;;;;;;;;
2023/05/03 00:48:50;;;;;;;0.70;0.47;;;5.50;99.90;;;;;;6146980;23;20017;-89
2023/05/03 00:51:28;;;;;;;0.32;0.30;;;5.50;99.90;;;;;;6135337;23;20060;-89
2023/05/03 00:53:58;;;;;;;1.00;0.20;;;5.40;99.90;;;;;;6111806;23;20071;-88
2023/05/03 00:56:28;;;;;;;0.30;0.30;;;4.90;99.90;;;;;;6111444;23;20013;-89
2023/05/03 00:58:54;;;;;;;0.35;0.10;;;5.40;99.90;;;;;;6135664;23;20028;-89
2023/05/03 01:01:33;;;;;;;0.55;0.38;;;5.40;99.90;;;;;;6159167;23;20017;-89
2023/05/03 01:04:12;;;;;;;0.10;0.10;;;5.40;99.90;;;;;;6136184;23;20028;-89
2023/05/03 01:06:48;;;;;;;0.40;0.20;;;5.50;99.90;;;;;;6134908;23;20020;-88
2023/05/03 01:09:19;;;;;;;0.20;0.10;;;5.40;99.90;;;;;;6135576;23;20043;-88
2023/05/03 01:12:30;;;;;;;0.20;0.20;;;5.50;99.90;;;;;;6160162;23;20096;-89
2023/05/03 01:15:24;;;;;;;0.15;0.15;;;5.50;99.90;;;;;;6138790;23;20028;-89
2023/05/03 01:18:14;;;;;;;0.63;0.60;;;5.50;99.90;;;;;;6134544;23;20040;-88
2023/05/03 01:20:59;;;;;;;;;;;;;;;;;;;;;
2023/05/03 01:23:36;;;;;;;0.10;0.10;;;5.70;99.90;;;;;;6159780;23;20052;-89
2023/05/03 01:26:23;;;;;;;0.20;0.20;;;5.60;99.90;;;;;;6135130;23;20028;-89
2023/05/03 01:28:50;;;;;;;0.30;0.30;;;5.60;99.90;;;;;;6134950;23;20056;-89
2023/05/03 01:32:18;;;;;;;;;;;;;;;;;;;;;
2023/05/03 01:35:19;;;;;;;0.05;0.05;;;5.50;99.90;;;;;;6133728;23;20064;-89
2023/05/03 01:37:51;;;;;;;0.20;0.15;;;5.60;99.90;;;;;;6159657;23;20021;-89
2023/05/03 01:40:39;;;;;;;0.20;0.20;;;5.50;99.90;;;;;;6135460;23;20075;-90
2023/05/03 01:43:15;;;;;;;0.10;0.10;;;5.50;99.90;;;;;;6135113;23;20020;-89
2023/05/03 01:46:12;;;;;;;0.10;0.10;;;5.50;99.90;;;;;;6110686;23;20079;-89
2023/05/03 01:48:53;;;;;;;0.32;0.10;;;5.30;99.90;;;;;;6134191;23;20132;-89
2023/05/03 01:51:29;;;;;;;;;;;;;;;;;;;;;
2023/05/03 01:54:08;;;;;;;0.40;0.15;;;5.50;99.90;;;;;;6159749;23;20023;-89
2023/05/03 01:56:45;;;;;;;0.30;0.30;;;5.50;99.90;;;;;;6110464;23;20017;-89
2023/05/03 01:59:18;;;;;;;;;;;5.50;99.90;;;;;;6160169;23;20076;-88
2023/05/03 02:01:47;;;;;;;0.28;0.10;;;5.50;99.90;;;;;;6134318;23;20116;-89
2023/05/03 02:04:38;;;;;;;0.45;0.20;;;5.50;99.90;;;;;;6111806;23;20060;-89
2023/05/03 02:07:37;;;;;;;0.10;0.10;;;5.40;99.90;;;;;;6159949;23;20447;-89
2023/05/03 02:10:43;;;;;;;;;;;;;;;;;;;;;
2023/05/03 02:13:39;;;;;;;0.43;0.28;;;5.20;99.90;;;;;;6159801;23;20096;-88
2023/05/03 02:16:10;;;;;;;0.45;0.20;;;5.10;99.90;;;;;;6159207;23;20020;-88
2023/05/03 02:18:52;;;;;;;;;;;;;;;;;;;;;
2023/05/03 02:21:23;;;;;;;0.17;0.13;;;4.80;99.90;;;;;;6136955;23;20014;-88
2023/05/03 02:24:21;;;;;;;0.10;0.10;;;4.00;99.90;;;;;;6134792;23;20021;-88
2023/05/03 02:26:47;;;;;;;0.35;0.35;;;5.00;99.90;;;;;;6158860;23;20025;-88
2023/05/03 02:29:23;;;;;;;0.35;0.25;;;4.20;99.90;;;;;;6159066;23;20449;-88
2023/05/03 02:31:51;;;;;;;0.30;0.20;;;4.70;99.90;;;;;;6111292;23;20406;-89
2023/05/03 02:34:37;;;;;;;0.13;0.13;;;4.70;99.90;;;;;;6110354;23;20016;-89
2023/05/03 02:37:23;;;;;;;0.52;0.47;;;4.70;99.90;;;;;;6134753;23;20111;-89
2023/05/03 02:40:27;;;;;;;0.13;0.13;;;4.50;99.90;;;;;;6136992;23;20457;-89
2023/05/03 02:43:06;;;;;;;0.20;0.20;;;4.50;99.90;;;;;;6138411;23;20040;-89
2023/05/03 02:45:35;;;;;;;0.20;0.20;;;4.50;99.90;;;;;;6112260;23;20017;-89
2023/05/03 02:48:01;;;;;;;0.10;0.10;;;4.50;99.90;;;;;;6133774;23;20071;-76
2023/05/03 02:50:27;;;;;;;0.33;0.20;;;4.90;99.90;;;;;;6159081;23;20019;-76
2023/05/03 02:52:52;;;;;;;0.30;0.20;;;4.40;99.90;;;;;;6134222;23;20243;-76
2023/05/03 02:55:18;;;;;;;0.13;0.13;;;4.30;99.90;;;;;;6185686;23;20024;-76
2023/05/03 02:57:44;;;;;;;0.30;0.23;;;4.20;99.90;;;;;;6185293;23;20099;-76
2023/05/03 03:00:14;;;;;;;0.20;0.20;;;4.20;99.90;;;;;;6159197;23;20028;-76
2023/05/03 03:02:40;;;;;;;0.28;0.28;;;4.20;99.90;;;;;;6159067;23;20425;-76
2023/05/03 03:05:07;;;;;;;0.20;0.20;;;4.40;99.90;;;;;;6185277;23;20052;-76
2023/05/03 03:07:33;;;;;;;0.57;0.25;;;4.10;99.90;;;;;;6185026;23;20017;-76
2023/05/03 03:09:59;;;;;;;0.20;0.20;;;4.10;99.90;;;;;;6159143;23;20107;-75
2023/05/03 03:12:27;;;;;;;0.13;0.13;;;4.10;99.90;;;;;;6185429;23;20017;-75
2023/05/03 03:14:53;;;;;;;0.08;0.08;;;4.50;99.90;;;;;;6185189;23;20081;-76
2023/05/03 03:17:19;;;;;;;0.20;0.20;;;4.00;99.90;;;;;;6159096;23;20021;-76
2023/05/03 03:19:45;;;;;;;0.27;0.20;;;3.90;99.90;;;;;;6158114;23;20017;-76
2023/05/03 03:22:11;;;;;;;0.10;0.10;;;3.90;99.90;;;;;;6184946;23;20284;-76
2023/05/03 03:24:37;;;;;;;0.00;0.00;;;3.80;99.90;;;;;;6158701;23;20445;-76
2023/05/03 03:27:02;;;;;;;0.70;0.30;;;3.80;99.90;;;;;;6158789;23;20017;-76
2023/05/03 03:29:31;;;;;;;0.00;0.00;;;3.80;99.90;;;;;;6185373;23;20028;-75
2023/05/03 03:31:56;;;;;;;0.10;0.10;;;3.80;99.90;;;;;;6184573;23;20119;-76
2023/05/03 03:34:22;;;;;;;0.20;0.20;;;4.00;99.90;;;;;;6185354;23;20442;-76
2023/05/03 03:36:48;;;;;;;0.63;0.63;;;3.70;99.90;;;;;;6184979;23;20028;-76
2023/05/03 03:39:13;;;;;;;0.53;0.40;;;3.70;99.90;;;;;;6185967;23;20024;-76
2023/05/03 03:41:39;;;;;;;0.30;0.30;;;3.60;99.90;;;;;;6184459;23;20059;-76
2023/05/03 03:44:05;;;;;;;0.30;0.30;;;3.60;99.90;;;;;;6185262;23;20078;-76
2023/05/03 03:46:31;;;;;;;0.10;0.10;;;3.60;99.90;;;;;;6158788;23;20059;-76
2023/05/03 03:48:56;;;;;;;0.23;0.23;;;3.50;99.90;;;;;;6158357;23;20025;-76
2023/05/03 03:51:22;;;;;;;0.53;0.17;;;3.50;99.90;;;;;;6159062;23;20044;-76
2023/05/03 03:53:48;;;;;;;0.40;0.30;;;3.50;99.90;;;;;;6158515;23;20320;-76
2023/05/03 03:56:14;;;;;;;0.43;0.13;;;3.50;99.90;;;;;;6185242;23;20023;-76
2023/05/03 03:58:39;;;;;;;0.37;0.30;;;3.50;99.90;;;;;;6184815;23;20331;-76
2023/05/03 04:01:05;;;;;;;0.20;0.20;;;3.50;99.90;;;;;;6158511;23;20017;-76
2023/05/03 04:03:32;;;;;;;0.10;0.10;;;4.00;99.90;;;;;;6185130;23;20073;-76
2023/05/03 04:05:57;;;;;;;0.00;0.00;;;3.50;99.90;;;;;;6160544;23;20342;-76
2023/05/03 04:08:23;;;;;;;0.07;0.07;;;3.50;99.90;;;;;;6160990;23;20017;-76
2023/05/03 04:10:49;;;;;;;0.20;0.20;;;3.50;99.90;;;;;;6160489;23;20100;-76
2023/05/03 04:13:15;;;;;;;1.30;0.20;;;4.00;99.90;;;;;;6186501;23;20472;-76
2023/05/03 04:15:41;;;;;;;0.40;0.40;;;3.60;99.90;;;;;;6160551;23;20025;-77
2023/05/03 04:18:07;;;;;;;0.40;0.23;;;3.70;99.90;;;;;;6187303;23;20025;-76
2023/05/03 04:20:33;;;;;;;0.10;0.10;;;3.80;99.90;;;;;;6187108;23;20021;-76
2023/05/03 04:22:59;;;;;;;0.20;0.20;;;4.00;99.90;;;;;;6160554;23;20323;-76
2023/05/03 04:25:25;;;;;;;0.23;0.23;;;4.00;99.90;;;;;;6187009;23;20056;-76
2023/05/03 04:27:51;;;;;;;1.00;0.30;;;4.00;99.90;;;;;;6160029;23;20021;-76
2023/05/03 04:30:17;;;;;;;0.40;0.20;;;4.10;99.90;;;;;;6160743;23;20019;-76
2023/05/03 04:32:43;;;;;;;2.43;0.30;;;4.20;99.90;;;;;;6135759;23;20017;-77
2023/05/03 04:35:11;;;;;;;0.20;0.20;;;4.20;99.90;;;;;;6187155;23;20403;-76
2023/05/03 04:37:38;;;;;;;0.25;0.10;;;4.30;99.90;;;;;;6112227;23;20021;-76
2023/05/03 04:40:10;;;;;;;0.40;0.40;;;4.30;99.90;;;;;;6159891;23;20438;-76
2023/05/03 04:42:36;;;;;;;0.22;0.20;;;4.40;99.90;;;;;;6186704;23;20136;-76
2023/05/03 04:45:03;;;;;;;0.53;0.43;;;4.50;99.90;;;;;;6159893;23;20056;-76
2023/05/03 04:47:29;;;;;;;1.00;0.25;;;4.50;99.90;;;;;;6159963;23;20017;-76
2023/05/03 04:49:54;;;;;;;0.20;0.20;;;4.60;99.90;;;;;;6186478;23;20025;-77
2023/05/03 04:52:20;;;;;;;0.40;0.40;;;4.60;99.90;;;;;;6185384;23;20048;-76
2023/05/03 04:54:46;;;;;;;0.50;0.20;;;4.70;99.90;;;;;;6159911;23;20485;-77
2023/05/03 04:57:12;;;;;;;0.20;0.20;;;4.70;99.90;;;;;;6186938;23;20021;-76
2023/05/03 04:59:38;;;;;;;0.63;0.60;;;4.80;99.90;;;;;;6186900;23;20020;-77
2023/05/03 05:02:03;;;;;;;1.63;0.50;;;4.90;99.90;;;;;;6159530;23;20346;-77
2023/05/03 05:04:29;;;;;;;0.20;0.20;;;5.00;99.90;;;;;;6135623;23;20337;-76
2023/05/03 05:06:55;;;;;;;0.37;0.37;;;5.10;99.90;;;;;;6160083;23;20020;-76
2023/05/03 05:09:26;;;;;;;0.53;0.30;;;5.20;99.90;;;;;;6186234;23;20027;-76
2023/05/03 05:11:51;;;;;;;0.03;0.03;;;5.20;99.90;;;;;;6159923;23;20446;-77
2023/05/03 05:14:18;;;;;;;0.10;0.10;;;6.10;99.90;;;;;;6186022;23;20021;-76
2023/05/03 05:16:44;;;;;;;0.20;0.17;;;5.50;99.90;;;;;;6186528;23;20017;-76
2023/05/03 05:19:12;;;;;;;1.83;0.50;;;5.50;99.90;;;;;;6159713;23;20613;-76
2023/05/03 05:21:38;;;;;;;0.32;0.32;;;5.60;99.90;;;;;;6186383;23;20092;-76
2023/05/03 05:24:04;;;;;;;0.25;0.20;;;5.70;99.90;;;;;;6185384;23;20426;-76
2023/05/03 05:26:30;;;;;;;0.73;0.32;;;5.70;99.90;;;;;;6186629;23;20017;-76
2023/05/03 05:28:56;;;;;;;0.20;0.20;;;5.80;99.90;;;;;;6187327;23;20067;-76
2023/05/03 05:31:23;;;;;;;0.10;0.10;;;5.90;99.90;;;;;;6159626;23;20017;-76
2023/05/03 05:33:49;;;;;;;0.20;0.20;;;6.00;99.90;;;;;;6184910;23;20051;-78
2023/05/03 05:36:15;;;;;;;0.30;0.30;;;6.00;99.90;;;;;;6185512;23;20092;-77
2023/05/03 05:38:41;;;;;;;0.43;0.40;;;6.10;99.90;;;;;;6186438;23;20289;-76
2023/05/03 05:41:06;;;;;;;0.25;0.25;;;6.20;99.90;;;;;;6185603;23;20028;-76
2023/05/03 05:43:32;;;;;;;0.20;0.20;;;6.30;99.90;;;;;;6159790;23;20013;-76
2023/05/03 05:45:58;;;;;;;0.13;0.13;;;6.40;99.90;;;;;;6185852;23;20017;-76
2023/05/03 05:48:24;;;;;;;0.30;0.30;;;6.50;99.90;;;;;;6162602;23;20028;-76
2023/05/03 05:50:50;;;;;;;0.30;0.30;;;6.60;99.90;;;;;;6186343;23;20096;-77
2023/05/03 05:53:16;;;;;;;0.10;0.10;;;6.60;99.90;;;;;;6186241;23;20017;-76
2023/05/03 05:55:42;;;;;;;0.38;0.30;;;6.70;99.90;;;;;;6160106;23;20693;-76
2023/05/03 05:58:08;;;;;;;0.30;0.30;;;6.80;99.90;;;;;;6188284;23;20156;-76
2023/05/03 06:00:35;;;;;;;0.22;0.22;;;6.80;99.90;;;;;;6159695;23;20024;-76
2023/05/03 06:03:00;;;;;;;0.20;0.20;;;6.90;99.90;;;;;;6158235;23;20100;-78
2023/05/03 06:05:26;;;;;;;0.20;0.10;;;7.00;99.90;;;;;;6185322;23;20067;-77
2023/05/03 06:07:52;;;;;;;0.23;0.23;;;7.10;99.90;;;;;;6159033;23;20345;-78
2023/05/03 06:10:18;;;;;;;0.30;0.30;;;7.10;99.90;;;;;;6185073;23;20059;-77
2023/05/03 06:12:43;;;;;;;0.20;0.20;;;7.20;99.90;;;;;;6158457;23;20087;-77
2023/05/03 06:15:09;;;;;;;0.23;0.23;;;7.20;99.90;;;;;;6185018;23;20084;-77
2023/05/03 06:17:35;;;;;;;0.30;0.30;;;7.20;99.90;;;;;;6159127;23;20021;-77
2023/05/03 06:20:01;;;;;;;0.30;0.30;;;7.30;99.90;;;;;;6185051;23;20291;-77
2023/05/03 06:22:27;;;;;;;0.52;0.52;;;7.30;99.90;;;;;;6158991;23;20080;-79
2023/05/03 06:24:54;;;;;;;0.07;0.07;;;7.40;99.90;;;;;;6158982;23;20017;-78
2023/05/03 06:27:19;;;;;;;0.20;0.20;;;7.40;99.90;;;;;;6184346;23;20024;-78
2023/05/03 06:29:46;;;;;;;0.13;0.13;;;7.40;99.90;;;;;;6184889;23;20017;-78
2023/05/03 06:32:12;;;;;;;0.32;0.32;;;7.50;99.90;;;;;;6158691;23;20088;-74
2023/05/03 06:34:38;;;;;;;0.10;0.10;;;7.50;99.90;;;;;;6159195;23;20442;-76
2023/05/03 06:37:04;;;;;;;0.70;0.30;;;7.60;99.90;;;;;;6184223;23;20032;-76
2023/05/03 06:39:30;;;;;;;0.30;0.20;;;7.60;99.90;;;;;;6185291;23;20341;-75
2023/05/03 06:41:55;;;;;;;0.20;0.20;;;7.60;99.90;;;;;;6158746;23;20072;-76
2023/05/03 06:44:21;;;;;;;0.30;0.30;;;7.70;99.90;;;;;;6133908;23;20628;-76
2023/05/03 06:46:47;;;;;;;0.30;0.30;;;7.70;99.90;;;;;;6158808;23;20021;-76
2023/05/03 06:49:12;;;;;;;1.50;0.47;;;7.70;99.90;;;;;;6157321;23;20445;-76
2023/05/03 06:51:38;;;;;;;0.20;0.20;;;7.80;99.90;;;;;;6183956;23;20092;-78
2023/05/03 06:54:08;;;;;;;0.00;0.00;;;7.90;99.90;;;;;;6184080;23;20477;-77
2023/05/03 06:56:35;;;;;;;0.47;0.30;;;7.90;99.90;;;;;;6160380;23;20345;-77
2023/05/03 06:59:01;;;;;;;;;;;8.00;99.90;;;;;;6158894;23;20095;-76
2023/05/03 07:01:27;;;;;;;0.15;0.10;;;8.00;99.90;;;;;;6184976;23;19923;-76
2023/05/03 07:03:52;;;;;;;0.10;0.10;;;8.10;99.90;;;;;;6158609;23;20017;-76
2023/05/03 07:06:18;;;;;;;0.13;0.13;;;8.20;99.90;;;;;;6158347;23;20028;-76
2023/05/03 07:08:44;;;;;;;0.20;0.20;;;8.30;99.90;;;;;;6185023;23;20032;-76
2023/05/03 07:11:10;;;;;;;0.17;0.17;;;8.30;99.90;;;;;;6184433;23;20104;-76
2023/05/03 07:13:36;;;;;;;0.83;0.20;;;8.40;99.90;;;;;;6184334;23;20013;-76
2023/05/03 07:16:02;;;;;;;0.97;0.83;;;8.50;99.90;;;;;;6158449;23;20049;-79
2023/05/03 07:18:27;;;;;;;0.05;0.05;;;8.50;99.90;;;;;;6158465;23;20450;-76
2023/05/03 07:20:53;;;;;;;0.10;0.10;;;8.60;99.90;;;;;;6158621;23;20028;-76
2023/05/03 07:23:19;;;;;;;0.23;0.23;;;8.60;99.90;;;;;;6136963;23;20434;-76
2023/05/03 07:25:44;;;;;;;0.40;0.20;;;8.60;99.90;;;;;;6184441;23;20469;-76
2023/05/03 07:28:11;;;;;;;0.13;0.13;;;8.60;99.90;;;;;;6158077;23;20072;-76
2023/05/03 07:30:36;;;;;;;0.17;0.17;;;8.60;99.90;;;;;;6158014;23;20024;-75
2023/05/03 07:33:02;;;;;;;0.20;0.10;;;8.60;99.90;;;;;;6158482;23;20047;-76
2023/05/03 07:35:29;;;;;;;0.52;0.13;;;8.70;99.90;;;;;;6184358;23;20082;-77
2023/05/03 07:37:55;;;;;;;;;;;8.90;99.90;;;;;;6185034;23;20021;-76
2023/05/03 07:40:21;;;;;;;0.10;0.10;;;8.90;99.90;;;;;;6184310;23;19923;-76
2023/05/03 07:42:47;;;;;;;0.10;0.10;;;8.90;99.90;;;;;;6184569;23;20078;-76
2023/05/03 07:45:13;;;;;;;0.33;0.33;;;9.00;99.90;;;;;;6157953;23;20052;-76
2023/05/03 07:47:39;;;;;;;0.20;0.20;;;9.10;99.90;;;;;;6184540;23;20087;-77
2023/05/03 07:50:06;;;;;;;0.20;0.20;;;9.20;99.90;;;;;;6158526;23;20028;-76
2023/05/03 07:52:39;;;;;;;0.20;0.20;;;9.20;99.90;;;;;;6183687;23;20303;-77
2023/05/03 07:55:05;;;;;;;0.22;0.20;;;9.30;99.90;;;;;;6185000;23;20076;-77
2023/05/03 07:57:31;;;;;;;;;;;9.20;99.90;;;;;;6134542;23;20017;-77
2023/05/03 07:59:57;;;;;;;0.13;0.13;;;9.20;99.90;;;;;;6185513;23;19912;-77
2023/05/03 08:02:23;;;;;;;0.20;0.17;;;9.20;99.90;;;;;;6133607;23;20013;-77
2023/05/03 08:04:48;;;;;;;0.33;0.20;;;9.30;99.90;;;;;;6185272;23;20060;-77
2023/05/03 08:07:14;;;;;;;0.20;0.20;;;9.30;99.90;;;;;;6158503;23;20020;-77
2023/05/03 08:09:40;;;;;;;0.13;0.13;;;9.40;99.90;;;;;;6184873;23;20020;-77
2023/05/03 08:12:06;;;;;;;0.28;0.28;;;9.30;99.90;;;;;;6185246;23;20017;-77
2023/05/03 08:14:32;;;;;;;0.20;0.20;;;9.40;99.90;;;;;;6184764;23;20023;-77
2023/05/03 08:16:59;;;;;;;0.30;0.17;;;9.40;99.90;;;;;;6185366;23;20299;-77
2023/05/03 08:19:25;;;;;;;0.25;0.25;;;9.50;99.90;;;;;;6158488;23;20072;-77
2023/05/03 08:21:53;;;;;;;0.15;0.15;;;9.50;99.90;;;;;;6185174;23;20024;-77
2023/05/03 08:24:19;;;;;;;0.30;0.30;;;9.60;99.90;;;;;;6184687;23;20024;-78
2023/05/03 08:26:45;;;;;;;0.40;0.30;;;9.70;99.90;;;;;;6185338;23;20096;-77
2023/05/03 08:29:11;;;;;;;0.63;0.43;;;9.70;99.90;;;;;;6184910;23;20048;-77
2023/05/03 08:31:37;;;;;;;0.50;0.40;;;9.80;99.90;;;;;;6185091;23;20314;-77
2023/05/03 08:34:03;;;;;;;0.65;0.30;;;9.90;99.90;;;;;;6184919;23;20023;-77
2023/05/03 08:36:30;;;;;;;0.38;0.13;;;9.90;99.90;;;;;;6133957;23;20021;-77
2023/05/03 08:38:58;;;;;;;0.30;0.30;;;9.90;99.90;;;;;;6158842;23;20087;-77
2023/05/03 08:41:26;;;;;;;0.35;0.35;;;9.50;99.90;;;;;;6158401;23;20013;-77
2023/05/03 08:43:53;;;;;;;0.30;0.30;;;9.90;99.90;;;;;;6158847;23;20024;-77
2023/05/03 08:46:20;;;;;;;0.22;0.22;;;10.00;99.90;;;;;;6184637;23;20021;-77
2023/05/03 08:48:51;;;;;;;0.30;0.30;;;10.00;99.90;;;;;;6185079;23;20013;-77
2023/05/03 08:51:18;;;;;;;0.30;0.30;;;10.10;99.90;;;;;;6185687;23;20087;-77
2023/05/03 08:53:43;;;;;;;;;;;10.10;99.90;;;;;;6187276;23;20016;-77
2023/05/03 08:56:11;;;;;;;0.20;0.20;;;10.20;99.90;;;;;;6186875;23;19916;-77
2023/05/03 08:58:37;;;;;;;1.27;0.68;;;10.20;99.90;;;;;;6186232;23;20024;-77
2023/05/03 09:01:08;;;;;;;0.20;0.20;;;10.30;99.90;;;;;;6186824;23;20009;-77
2023/05/03 09:03:35;;;;;;;0.13;0.13;;;10.30;99.90;;;;;;6159709;23;20013;-77
2023/05/03 09:06:01;;;;;;;0.30;0.30;;;10.40;99.90;;;;;;6135777;23;20055;-77
2023/05/03 09:08:28;;;;;;;0.20;0.20;;;10.50;99.90;;;;;;6186271;23;20017;-77
2023/05/03 09:10:54;;;;;;;0.35;0.30;;;10.60;99.90;;;;;;6186690;23;20429;-77
2023/05/03 09:13:21;;;;;;;0.30;0.30;;;10.70;99.90;;;;;;6186223;23;20020;-77
2023/05/03 09:15:53;;;;;;;0.20;0.20;;;10.70;99.90;;;;;;6186902;23;20013;-77
2023/05/03 09:18:19;;;;;;;0.40;0.40;;;10.80;99.90;;;;;;6186131;23;20036;-78
2023/05/03 09:20:50;;;;;;;0.40;0.22;;;10.80;99.90;;;;;;6185862;23;20434;-77
2023/05/03 09:23:25;;;;;;;0.85;0.22;;;10.80;99.90;;;;;;6160110;23;20473;-77
2023/05/03 09:25:51;;;;;;;0.20;0.20;;;10.80;99.90;;;;;;6136013;23;20017;-77
2023/05/03 09:28:18;;;;;;;0.20;0.20;;;10.90;99.90;;;;;;6160207;23;20013;-77
2023/05/03 09:30:45;;;;;;;0.30;0.30;;;10.90;99.90;;;;;;6186399;23;20330;-77
2023/05/03 09:33:11;;;;;;;;;;;10.90;99.90;;;;;;6160667;23;20052;-77
2023/05/03 09:35:37;;;;;;;0.20;0.20;;;11.00;99.90;;;;;;6186063;23;19912;-78
2023/05/03 09:38:04;;;;;;;0.40;0.40;;;11.00;99.90;;;;;;6160158;23;20015;-78
2023/05/03 09:40:30;;;;;;;0.20;0.20;;;10.90;99.90;;;;;;6186052;23;20027;-77
2023/05/03 09:43:13;;;;;;;0.70;0.37;;;11.00;99.90;;;;;;6186306;23;20005;-77
2023/05/03 09:45:39;;;;;;;0.17;0.10;;;11.00;99.90;;;;;;6185931;23;20320;-77
2023/05/03 09:48:06;;;;;;;0.65;0.50;;;11.00;99.90;;;;;;6159590;23;20468;-77
2023/05/03 09:50:33;;;;;;;0.22;0.22;;;11.00;99.90;;;;;;6159308;23;20028;-78
2023/05/03 09:53:06;;;;;;;0.20;0.20;;;11.00;99.90;;;;;;6160894;23;20020;-78
2023/05/03 09:55:41;;;;;;;0.13;0.13;;;11.10;99.90;;;;;;6159566;23;20013;-78
2023/05/03 09:58:07;;;;;;;0.30;0.30;;;11.20;99.90;;;;;;6159653;23;20397;-78
2023/05/03 10:00:35;;;;;;;0.25;0.22;;;11.30;99.90;;;;;;6185768;23;20017;-78
2023/05/03 10:03:03;;;;;;;0.28;0.28;;;11.40;99.90;;;;;;6186145;23;20019;-78
2023/05/03 10:05:32;;;;;;;0.30;0.30;;;11.50;99.90;;;;;;6185740;23;20024;-78
2023/05/03 10:08:02;;;;;;;0.65;0.45;;;11.60;99.90;;;;;;6186086;23;20488;-78
2023/05/03 10:10:31;;;;;;;0.25;0.25;;;11.70;99.90;;;;;;6185769;23;20044;-78
2023/05/03 10:12:58;;;;;;;0.35;0.35;;;11.90;99.90;;;;;;6159805;23;20036;-78
2023/05/03 10:15:26;;;;;;;0.20;0.20;;;12.10;99.90;;;;;;6159736;23;20024;-81
2023/05/03 10:17:55;;;;;;;0.10;0.10;;;12.30;99.90;;;;;;6159418;23;20100;-80
2023/05/03 10:20:40;;;;;;;0.43;0.40;;;12.40;99.90;;;;;;6159950;23;20084;-78
2023/05/03 10:23:13;;;;;;;0.15;0.15;;;12.50;99.90;;;;;;6159694;23;20017;-78
2023/05/03 10:25:56;;;;;;;0.03;0.03;;;12.50;99.90;;;;;;6185646;23;20013;-78
2023/05/03 10:28:22;;;;;;;0.25;0.17;;;12.50;99.90;;;;;;6135365;23;20059;-78
2023/05/03 10:30:47;;;;;;;0.63;0.47;;;12.40;99.90;;;;;;6185641;23;20017;-78
2023/05/03 10:33:13;;;;;;;0.27;0.27;;;12.40;99.90;;;;;;6186025;23;20020;-78
2023/05/03 10:35:51;;;;;;;0.53;0.50;;;12.40;99.90;;;;;;6185569;23;20083;-78
2023/05/03 10:38:20;;;;;;;1.65;0.55;;;12.40;99.90;;;;;;6159834;23;20088;-78
2023/05/03 10:40:47;;;;;;;0.20;0.20;;;12.40;99.90;;;;;;6159245;23;20103;-78
2023/05/03 10:43:30;;;;;;;0.32;0.32;;;12.40;99.90;;;;;;6134772;23;20020;-78
2023/05/03 10:46:00;;;;;;;0.25;0.20;;;12.90;99.90;;;;;;6135003;23;20049;-78
2023/05/03 10:48:27;;;;;;;0.75;0.25;;;13.40;99.90;;;;;;6186051;23;20017;-78
2023/05/03 10:50:54;;;;;;;0.20;0.20;;;13.90;99.90;;;;;;6159622;23;20020;-78
2023/05/03 10:53:46;;;;;;;0.25;0.25;;;14.30;99.90;;;;;;6159548;23;20017;-78
2023/05/03 10:56:14;;;;;;;0.40;0.40;;;14.20;99.90;;;;;;6180207;23;20492;-78
2023/05/03 10:58:49;;;;;;;0.20;0.20;;;14.30;99.90;;;;;;6157793;23;20057;-79
2023/05/03 11:01:16;;;;;;;0.30;0.30;;;14.60;99.90;;;;;;6158628;23;20519;-77
2023/05/03 11:04:23;;;;;;;0.20;0.10;;;14.80;99.90;;;;;;6185196;23;20060;-77
2023/05/03 11:06:50;;;;;;;0.30;0.30;;;15.00;99.90;;;;;;6067960;23;20019;-76
2023/05/03 11:09:16;;;;;;;0.10;0.10;;;15.20;99.90;;;;;;6140704;23;20020;-76
2023/05/03 11:11:42;;;;;;;0.32;0.32;;;15.20;99.90;;;;;;6158435;23;20009;-76
2023/05/03 11:14:09;;;;;;;0.30;0.30;;;15.40;99.90;;;;;;6159103;23;20013;-75
2023/05/03 11:16:35;;;;;;;0.30;0.30;;;15.70;99.90;;;;;;6185216;23;20009;-76
2023/05/03 11:19:02;;;;;;;0.32;0.20;;;15.80;99.90;;;;;;6185174;23;20013;-76
2023/05/03 11:21:28;;;;;;;0.20;0.20;;;15.80;99.90;;;;;;6185233;23;20340;-76
2023/05/03 11:23:56;;;;;;;0.10;0.10;;;15.90;99.90;;;;;;6184941;23;20009;-76
2023/05/03 11:26:24;;;;;;;0.20;0.20;;;16.00;99.90;;;;;;6159906;23;20019;-75
2023/05/03 11:28:50;;;;;;;0.30;0.30;;;16.10;99.90;;;;;;6184423;23;20035;-75
2023/05/03 11:31:16;;;;;;;0.30;0.20;;;16.00;99.90;;;;;;6158403;23;20107;-77
2023/05/03 11:33:42;;;;;;;0.35;0.15;;;16.10;99.90;;;;;;6184200;23;20017;-78
2023/05/03 11:36:09;;;;;;;0.25;0.25;;;16.30;99.90;;;;;;6184841;23;20032;-78
2023/05/03 11:38:35;;;;;;;;;;;16.40;99.90;;;;;;6184785;23;20071;-78
2023/05/03 11:41:15;;;;;;;0.30;0.30;;;16.20;97.60;;;;;;6184773;23;19916;-77
2023/05/03 11:43:46;;;;;;;0.38;0.38;;;16.10;99.90;;;;;;6184261;23;20088;-78
2023/05/03 11:46:18;;;;;;;1.23;0.40;;;16.20;99.90;;;;;;6184621;23;20088;-79
2023/05/03 11:48:44;;;;;;;0.10;0.10;;;16.20;99.60;;;;;;6157932;23;20021;-79
2023/05/03 11:51:11;;;;;;;0.10;0.10;;;16.20;99.30;;;;;;6184555;23;20032;-80
2023/05/03 11:53:39;;;;;;;0.35;0.35;;;16.20;99.70;;;;;;6184630;23;20018;-80
2023/05/03 11:56:08;;;;;;;0.30;0.30;;;16.30;99.90;;;;;;6157943;23;20055;-80
2023/05/03 11:58:34;;;;;;;0.20;0.20;;;16.50;98.70;;;;;;6184949;23;20017;-80
2023/05/03 12:01:00;;;;;;;0.50;0.30;;;16.60;99.30;;;;;;6184598;23;20021;-79
2023/05/03 12:03:31;;;;;;;1.08;0.30;;;16.70;99.60;;;;;;6184585;23;20091;-80
2023/05/03 12:05:57;;;;;;;0.17;0.17;;;16.60;98.80;;;;;;6184192;23;20028;-79
2023/05/03 12:08:30;;;;;;;0.20;0.20;;;16.60;99.90;;;;;;6184251;23;20068;-81
2023/05/03 12:10:56;;;;;;;0.17;0.17;;;16.70;96.20;;;;;;6184130;23;20453;-80
2023/05/03 12:13:30;;;;;;;0.13;0.13;;;16.60;97.90;;;;;;6184453;23;20024;-80
2023/05/03 12:16:02;;;;;;;0.38;0.38;;;16.50;97.80;;;;;;6183917;23;20040;-81
2023/05/03 12:18:48;;;;;;;0.30;0.30;;;16.50;95.60;;;;;;6184779;23;20017;-80
2023/05/03 12:21:14;;;;;;;0.30;0.30;;;16.50;96.20;;;;;;6159137;23;20021;-80
2023/05/03 12:23:41;;;;;;;0.20;0.20;;;16.50;98.00;;;;;;6183700;23;20013;-80
2023/05/03 12:26:07;;;;;;;0.47;0.40;;;16.50;99.90;;;;;;6185614;23;20021;-80
2023/05/03 12:28:33;;;;;;;;;;;16.60;98.50;;;;;;6186727;23;20017;-80
2023/05/03 12:30:59;;;;;;;0.10;0.10;;;16.80;94.10;;;;;;6185971;23;19920;-81
2023/05/03 12:33:25;;;;;;;0.30;0.30;;;16.70;96.10;;;;;;6159929;23;20017;-80
2023/05/03 12:35:50;;;;;;;0.47;0.47;;;16.60;96.90;;;;;;6186216;23;20021;-81
2023/05/03 12:38:16;;;;;;;0.20;0.20;;;16.60;97.00;;;;;;6186398;23;20330;-80
2023/05/03 12:40:43;;;;;;;0.40;0.40;;;16.50;97.20;;;;;;6159842;23;20021;-80
2023/05/03 12:43:10;;;;;;;0.30;0.30;;;16.30;96.20;;;;;;6135249;23;20386;-80
2023/05/03 12:45:35;;;;;;;0.55;0.40;;;16.50;96.50;;;;;;6186365;23;20048;-80
2023/05/03 12:48:02;;;;;;;0.30;0.30;;;16.50;97.20;;;;;;6186103;23;20577;-81
2023/05/03 12:50:28;;;;;;;0.30;0.30;;;16.50;96.70;;;;;;6185964;23;20013;-81
2023/05/03 12:52:54;;;;;;;0.30;0.30;;;16.40;96.90;;;;;;6185826;23;20021;-82
2023/05/03 12:55:20;;;;;;;0.47;0.47;;;16.40;95.60;;;;;;6159439;23;20326;-83
2023/05/03 12:57:45;;;;;;;0.17;0.17;;;16.70;93.60;;;;;;6159246;23;20021;-80
2023/05/03 13:00:12;;;;;;;0.20;0.20;;;16.50;96.30;;;;;;6186155;23;20096;-80
2023/05/03 13:02:37;;;;;;;;;;;16.50;95.70;;;;;;6185913;23;20017;-81
2023/05/03 13:05:05;;;;;;;0.47;0.47;;;16.50;94.00;;;;;;6185545;23;20113;-80
2023/05/03 13:07:31;;;;;;;0.50;0.50;;;16.50;96.80;;;;;;6159572;23;20013;-78
2023/05/03 13:09:57;;;;;;;0.47;0.30;;;16.60;95.70;;;;;;6185972;23;20083;-79
2023/05/03 13:12:24;;;;;;;0.28;0.28;;;16.80;96.80;;;;;;6186066;23;20092;-81
2023/05/03 13:14:52;;;;;;;0.28;0.22;;;16.70;94.40;;;;;;6185570;23;20021;-81
2023/05/03 13:17:19;;;;;;;0.30;0.25;;;17.00;94.80;;;;;;6186021;23;20017;-81
2023/05/03 13:19:48;;;;;;;0.40;0.40;;;17.00;94.80;;;;;;6159914;23;20017;-82
2023/05/03 13:22:15;;;;;;;0.47;0.47;;;17.10;93.80;;;;;;6159484;23;20096;-81